sensor_id;sensor_type;location;lat;lon;timestamp;pressure;altitude;pressure_sealevel;temperature;humidity
21545;BME280;10933;50.754;11.508;2022-10-13T00:00:31;100201.75;;;5.17;100.00
21545;BME280;10933;50.754;11.508;2022-10-13T00:03:02;100203.69;;;5.37;100.00
21545;BME280;10933;50.754;11.508;2022-10-13T00:05:29;100206.16;;;5.45;100.00
21545;BME280;10933;50.754;11.508;2022-10-13T00:07:56;100213.34;;;5.44;100.00
21545;BME280;10933;50.754;11.508;2022-10-13T00:10:22;100210.31;;;5.47;100.00
21545;BME280;10933;50.754;11.508;2022-10-13T00:12:48;100211.09;;;5.35;100.00
21545;BME280;10933;50.754;11.508;2022-10-13T00:15:15;100206.53;;;5.28;100.00
21545;BME280;10933;50.754;11.508;2022-10-13T00:17:41;100205.69;;;5.21;100.00
21545;BME280;10933;50.754;11.508;2022-10-13T00:20:09;100199.13;;;5.30;100.00
21545;BME280;10933;50.754;11.508;2022-10-13T00:22:36;100199.16;;;5.37;100.00
21545;BME280;10933;50.754;11.508;2022-10-13T00:25:03;100202.00;;;5.22;100.00
21545;BME280;10933;50.754;11.508;2022-10-13T00:27:29;100198.25;;;5.17;100.00
21545;BME280;10933;50.754;11.508;2022-10-13T00:29:55;100198.44;;;5.15;100.00
21545;BME280;10933;50.754;11.508;2022-10-13T00:32:21;100197.47;;;5.29;100.00
21545;BME280;10933;50.754;11.508;2022-10-13T00:34:48;100196.63;;;5.22;100.00
21545;BME280;10933;50.754;11.508;2022-10-13T00:37:14;100193.31;;;5.20;100.00
21545;BME280;10933;50.754;11.508;2022-10-13T00:39:40;100193.31;;;5.20;100.00
21545;BME280;10933;50.754;11.508;2022-10-13T00:42:09;100190.44;;;5.15;100.00
21545;BME280;10933;50.754;11.508;2022-10-13T00:47:35;100197.88;;;5.26;100.00
21545;BME280;10933;50.754;11.508;2022-10-13T00:50:02;100195.38;;;5.18;100.00
21545;BME280;10933;50.754;11.508;2022-10-13T00:52:30;100197.41;;;5.10;100.00
21545;BME280;10933;50.754;11.508;2022-10-13T00:54:58;100203.97;;;5.07;100.00
21545;BME280;10933;50.754;11.508;2022-10-13T00:57:26;100206.47;;;5.15;100.00
21545;BME280;10933;50.754;11.508;2022-10-13T00:59:52;100218.66;;;5.31;100.00
21545;BME280;10933;50.754;11.508;2022-10-13T01:02:18;100201.25;;;5.55;100.00
21545;BME280;10933;50.754;11.508;2022-10-13T01:04:46;100208.22;;;5.43;100.00
21545;BME280;10933;50.754;11.508;2022-10-13T01:07:15;100200.38;;;5.41;100.00
21545;BME280;10933;50.754;11.508;2022-10-13T01:09:43;100211.47;;;5.31;100.00
21545;BME280;10933;50.754;11.508;2022-10-13T01:17:39;100208.25;;;5.49;100.00
21545;BME280;10933;50.754;11.508;2022-10-13T01:29:01;100190.06;;;5.31;100.00
21545;BME280;10933;50.754;11.508;2022-10-13T01:31:44;100192.06;;;5.16;100.00
21545;BME280;10933;50.754;11.508;2022-10-13T01:39:43;100173.97;;;5.12;100.00
21545;BME280;10933;50.754;11.508;2022-10-13T01:42:34;100166.78;;;5.12;100.00
21545;BME280;10933;50.754;11.508;2022-10-13T01:45:03;100164.00;;;4.92;100.00
21545;BME280;10933;50.754;11.508;2022-10-13T01:47:31;100161.59;;;5.04;100.00
21545;BME280;10933;50.754;11.508;2022-10-13T01:49:59;100158.34;;;5.09;100.00
21545;BME280;10933;50.754;11.508;2022-10-13T01:52:32;100157.84;;;4.92;100.00
21545;BME280;10933;50.754;11.508;2022-10-13T01:55:08;100159.47;;;4.93;100.00
21545;BME280;10933;50.754;11.508;2022-10-13T02:05:45;100155.22;;;5.05;100.00
21545;BME280;10933;50.754;11.508;2022-10-13T02:10:57;100147.38;;;5.03;100.00
21545;BME280;10933;50.754;11.508;2022-10-13T02:13:26;100153.09;;;4.94;100.00
21545;BME280;10933;50.754;11.508;2022-10-13T02:15:55;100147.13;;;4.92;100.00
21545;BME280;10933;50.754;11.508;2022-10-13T02:18:32;100147.19;;;5.05;100.00
21545;BME280;10933;50.754;11.508;2022-10-13T02:20:59;100148.84;;;5.06;100.00
21545;BME280;10933;50.754;11.508;2022-10-13T02:23:26;100146.41;;;5.11;100.00
21545;BME280;10933;50.754;11.508;2022-10-13T02:25:54;100141.06;;;5.11;100.00
21545;BME280;10933;50.754;11.508;2022-10-13T02:28:21;100145.78;;;5.09;100.00
21545;BME280;10933;50.754;11.508;2022-10-13T02:30:48;100146.19;;;5.13;100.00
21545;BME280;10933;50.754;11.508;2022-10-13T02:33:15;100144.75;;;5.10;100.00
21545;BME280;10933;50.754;11.508;2022-10-13T02:35:42;100148.84;;;5.06;100.00
21545;BME280;10933;50.754;11.508;2022-10-13T02:38:08;100143.91;;;5.03;100.00
21545;BME280;10933;50.754;11.508;2022-10-13T02:40:35;100135.25;;;5.08;100.00
21545;BME280;10933;50.754;11.508;2022-10-13T02:43:01;100139.78;;;5.07;100.00
21545;BME280;10933;50.754;11.508;2022-10-13T02:45:27;100133.03;;;5.11;100.00
21545;BME280;10933;50.754;11.508;2022-10-13T02:47:54;100129.09;;;5.07;100.00
21545;BME280;10933;50.754;11.508;2022-10-13T02:50:20;100130.34;;;5.11;100.00
21545;BME280;10933;50.754;11.508;2022-10-13T02:52:46;100128.25;;;5.07;100.00
21545;BME280;10933;50.754;11.508;2022-10-13T02:55:12;100127.28;;;5.14;100.00
21545;BME280;10933;50.754;11.508;2022-10-13T02:57:38;100131.97;;;5.06;100.00
21545;BME280;10933;50.754;11.508;2022-10-13T03:00:06;100125.34;;;4.95;100.00
21545;BME280;10933;50.754;11.508;2022-10-13T03:02:33;100122.88;;;4.87;100.00
21545;BME280;10933;50.754;11.508;2022-10-13T03:04:59;100131.28;;;4.84;100.00
21545;BME280;10933;50.754;11.508;2022-10-13T03:07:25;100124.09;;;4.84;100.00
21545;BME280;10933;50.754;11.508;2022-10-13T03:09:51;100118.75;;;4.91;100.00
21545;BME280;10933;50.754;11.508;2022-10-13T03:12:17;100121.53;;;4.69;100.00
21545;BME280;10933;50.754;11.508;2022-10-13T03:14:43;100127.34;;;4.73;100.00
21545;BME280;10933;50.754;11.508;2022-10-13T03:17:10;100115.00;;;4.79;100.00
21545;BME280;10933;50.754;11.508;2022-10-13T03:19:36;100121.38;;;4.78;100.00
21545;BME280;10933;50.754;11.508;2022-10-13T03:22:02;100128.16;;;4.80;100.00
21545;BME280;10933;50.754;11.508;2022-10-13T03:24:28;100121.59;;;4.83;100.00
21545;BME280;10933;50.754;11.508;2022-10-13T03:26:55;100113.72;;;4.68;100.00
21545;BME280;10933;50.754;11.508;2022-10-13T03:29:21;100115.09;;;4.57;100.00
21545;BME280;10933;50.754;11.508;2022-10-13T03:31:48;100115.09;;;4.57;100.00
21545;BME280;10933;50.754;11.508;2022-10-13T03:34:16;100118.59;;;4.51;100.00
21545;BME280;10933;50.754;11.508;2022-10-13T03:36:42;100111.66;;;4.29;100.00
21545;BME280;10933;50.754;11.508;2022-10-13T03:39:08;100112.06;;;4.26;100.00
21545;BME280;10933;50.754;11.508;2022-10-13T03:41:35;100115.63;;;4.33;100.00
21545;BME280;10933;50.754;11.508;2022-10-13T03:44:01;100113.38;;;4.36;100.00
21545;BME280;10933;50.754;11.508;2022-10-13T03:46:29;100113.56;;;4.35;100.00
21545;BME280;10933;50.754;11.508;2022-10-13T03:48:55;100120.13;;;4.32;100.00
21545;BME280;10933;50.754;11.508;2022-10-13T03:51:22;100119.34;;;4.38;100.00
21545;BME280;10933;50.754;11.508;2022-10-13T03:53:49;100119.13;;;4.40;100.00
21545;BME280;10933;50.754;11.508;2022-10-13T03:56:20;100111.13;;;4.40;100.00
21545;BME280;10933;50.754;11.508;2022-10-13T03:58:47;100111.53;;;4.37;100.00
21545;BME280;10933;50.754;11.508;2022-10-13T04:01:18;100110.28;;;4.33;100.00
21545;BME280;10933;50.754;11.508;2022-10-13T04:03:44;100100.59;;;4.32;100.00
21545;BME280;10933;50.754;11.508;2022-10-13T04:06:11;100103.66;;;4.29;100.00
21545;BME280;10933;50.754;11.508;2022-10-13T04:08:37;100105.75;;;4.33;100.00
21545;BME280;10933;50.754;11.508;2022-10-13T04:11:06;100090.56;;;4.34;100.00
21545;BME280;10933;50.754;11.508;2022-10-13T04:13:33;100097.34;;;4.36;100.00
21545;BME280;10933;50.754;11.508;2022-10-13T04:16:03;100093.50;;;4.52;100.00
21545;BME280;10933;50.754;11.508;2022-10-13T04:18:30;100085.72;;;4.57;100.00
21545;BME280;10933;50.754;11.508;2022-10-13T04:20:56;100083.72;;;4.66;100.00
21545;BME280;10933;50.754;11.508;2022-10-13T04:23:23;100087.81;;;4.68;100.00
21545;BME280;10933;50.754;11.508;2022-10-13T04:25:49;100082.44;;;4.55;100.00
21545;BME280;10933;50.754;11.508;2022-10-13T04:28:16;100074.59;;;4.47;100.00
21545;BME280;10933;50.754;11.508;2022-10-13T04:30:42;100079.13;;;4.53;100.00
21545;BME280;10933;50.754;11.508;2022-10-13T04:33:09;100081.38;;;4.50;100.00
21545;BME280;10933;50.754;11.508;2022-10-13T04:35:40;100073.31;;;4.43;100.00
21545;BME280;10933;50.754;11.508;2022-10-13T04:38:06;100069.63;;;4.44;100.00
21545;BME280;10933;50.754;11.508;2022-10-13T04:40:33;100057.69;;;4.40;100.00
21545;BME280;10933;50.754;11.508;2022-10-13T04:43:03;100075.22;;;4.49;100.00
21545;BME280;10933;50.754;11.508;2022-10-13T04:45:29;100063.44;;;4.37;100.00
21545;BME280;10933;50.754;11.508;2022-10-13T04:48:07;100070.44;;;4.38;100.00
21545;BME280;10933;50.754;11.508;2022-10-13T04:50:45;100064.47;;;4.42;100.00
21545;BME280;10933;50.754;11.508;2022-10-13T04:53:12;100065.09;;;4.38;100.00
21545;BME280;10933;50.754;11.508;2022-10-13T04:55:38;100067.59;;;4.46;100.00
21545;BME280;10933;50.754;11.508;2022-10-13T04:58:04;100065.56;;;4.48;100.00
21545;BME280;10933;50.754;11.508;2022-10-13T05:00:30;100064.75;;;4.54;100.00
21545;BME280;10933;50.754;11.508;2022-10-13T05:02:56;100066.84;;;4.65;100.00
21545;BME280;10933;50.754;11.508;2022-10-13T05:05:22;100075.47;;;4.61;100.00
21545;BME280;10933;50.754;11.508;2022-10-13T05:07:48;100072.19;;;4.59;100.00
21545;BME280;10933;50.754;11.508;2022-10-13T05:10:15;100073.22;;;4.64;100.00
21545;BME280;10933;50.754;11.508;2022-10-13T05:12:41;100076.31;;;4.61;100.00
21545;BME280;10933;50.754;11.508;2022-10-13T05:15:07;100077.13;;;4.68;100.00
21545;BME280;10933;50.754;11.508;2022-10-13T05:17:33;100083.34;;;4.76;100.00
21545;BME280;10933;50.754;11.508;2022-10-13T05:20:00;100079.03;;;4.75;100.00
21545;BME280;10933;50.754;11.508;2022-10-13T05:22:27;100082.53;;;4.82;100.00
21545;BME280;10933;50.754;11.508;2022-10-13T05:24:53;100080.50;;;4.84;100.00
21545;BME280;10933;50.754;11.508;2022-10-13T05:27:19;100082.41;;;5.03;100.00
21545;BME280;10933;50.754;11.508;2022-10-13T05:29:46;100084.91;;;5.11;100.00
21545;BME280;10933;50.754;11.508;2022-10-13T05:32:12;100082.22;;;5.18;100.00
21545;BME280;10933;50.754;11.508;2022-10-13T05:34:38;100076.88;;;5.31;100.00
21545;BME280;10933;50.754;11.508;2022-10-13T05:37:04;100075.88;;;5.39;100.00
21545;BME280;10933;50.754;11.508;2022-10-13T05:39:30;100081.03;;;5.47;100.00
21545;BME280;10933;50.754;11.508;2022-10-13T05:41:57;100082.69;;;5.54;100.00
21545;BME280;10933;50.754;11.508;2022-10-13T05:44:23;100084.13;;;5.50;100.00
21545;BME280;10933;50.754;11.508;2022-10-13T05:46:49;100076.94;;;5.64;100.00
21545;BME280;10933;50.754;11.508;2022-10-13T05:49:15;100080.22;;;5.79;100.00
21545;BME280;10933;50.754;11.508;2022-10-13T05:51:51;100091.34;;;5.89;100.00
21545;BME280;10933;50.754;11.508;2022-10-13T05:54:32;100094.22;;;5.88;100.00
21545;BME280;10933;50.754;11.508;2022-10-13T05:57:07;100092.81;;;5.99;100.00
21545;BME280;10933;50.754;11.508;2022-10-13T05:59:39;100093.19;;;6.15;100.00
21545;BME280;10933;50.754;11.508;2022-10-13T06:02:08;100101.00;;;6.17;100.00
21545;BME280;10933;50.754;11.508;2022-10-13T06:04:43;100093.59;;;5.86;100.00
21545;BME280;10933;50.754;11.508;2022-10-13T06:07:11;100092.78;;;5.85;100.00
21545;BME280;10933;50.754;11.508;2022-10-13T06:09:39;100091.56;;;6.01;100.00
21545;BME280;10933;50.754;11.508;2022-10-13T06:12:07;100089.69;;;6.15;100.00
21545;BME280;10933;50.754;11.508;2022-10-13T06:14:34;100090.91;;;6.19;100.00
21545;BME280;10933;50.754;11.508;2022-10-13T06:17:00;100082.69;;;6.07;100.00
21545;BME280;10933;50.754;11.508;2022-10-13T06:19:26;100090.91;;;6.26;100.00
21545;BME280;10933;50.754;11.508;2022-10-13T06:21:52;100087.78;;;6.35;100.00
21545;BME280;10933;50.754;11.508;2022-10-13T06:24:18;100081.75;;;6.46;100.00
21545;BME280;10933;50.754;11.508;2022-10-13T06:26:45;100077.69;;;6.37;100.00
21545;BME280;10933;50.754;11.508;2022-10-13T06:29:11;100075.19;;;6.42;100.00
21545;BME280;10933;50.754;11.508;2022-10-13T06:31:37;100082.88;;;6.26;100.00
21545;BME280;10933;50.754;11.508;2022-10-13T06:34:03;100074.41;;;6.35;100.00
21545;BME280;10933;50.754;11.508;2022-10-13T06:36:29;100069.44;;;6.39;100.00
21545;BME280;10933;50.754;11.508;2022-10-13T06:38:56;100071.19;;;6.58;100.00
21545;BME280;10933;50.754;11.508;2022-10-13T06:41:22;100064.63;;;6.61;100.00
21545;BME280;10933;50.754;11.508;2022-10-13T06:43:48;100074.50;;;7.05;100.00
21545;BME280;10933;50.754;11.508;2022-10-13T06:46:14;100084.75;;;7.46;100.00
21545;BME280;10933;50.754;11.508;2022-10-13T06:48:41;100075.63;;;7.79;100.00
21545;BME280;10933;50.754;11.508;2022-10-13T06:51:09;100074.38;;;7.81;100.00
21545;BME280;10933;50.754;11.508;2022-10-13T06:53:35;100059.59;;;8.15;100.00
21545;BME280;10933;50.754;11.508;2022-10-13T06:56:03;100058.31;;;8.18;100.00
21545;BME280;10933;50.754;11.508;2022-10-13T06:58:30;100049.34;;;8.06;100.00
21545;BME280;10933;50.754;11.508;2022-10-13T07:00:56;100058.56;;;7.91;100.00
21545;BME280;10933;50.754;11.508;2022-10-13T07:03:23;100051.47;;;7.97;100.00
21545;BME280;10933;50.754;11.508;2022-10-13T07:05:50;100052.06;;;7.99;100.00
21545;BME280;10933;50.754;11.508;2022-10-13T07:08:16;100053.00;;;8.11;100.00
21545;BME280;10933;50.754;11.508;2022-10-13T07:10:43;100055.91;;;8.10;100.00
21545;BME280;10933;50.754;11.508;2022-10-13T07:13:09;100054.94;;;8.04;100.00
21545;BME280;10933;50.754;11.508;2022-10-13T07:15:39;100050.47;;;8.16;100.00
21545;BME280;10933;50.754;11.508;2022-10-13T07:18:06;100059.31;;;8.42;100.00
21545;BME280;10933;50.754;11.508;2022-10-13T07:20:32;100047.81;;;8.53;100.00
21545;BME280;10933;50.754;11.508;2022-10-13T07:22:58;100050.34;;;8.66;100.00
21545;BME280;10933;50.754;11.508;2022-10-13T07:25:25;100045.97;;;8.83;100.00
21545;BME280;10933;50.754;11.508;2022-10-13T07:27:51;100045.63;;;8.62;100.00
21545;BME280;10933;50.754;11.508;2022-10-13T07:30:17;100041.41;;;8.54;100.00
21545;BME280;10933;50.754;11.508;2022-10-13T07:32:43;100042.56;;;8.58;100.00
21545;BME280;10933;50.754;11.508;2022-10-13T07:35:10;100036.31;;;8.27;100.00
21545;BME280;10933;50.754;11.508;2022-10-13T07:37:37;100041.38;;;8.36;100.00
21545;BME280;10933;50.754;11.508;2022-10-13T07:40:06;100033.31;;;8.36;100.00
21545;BME280;10933;50.754;11.508;2022-10-13T07:42:33;100042.81;;;8.38;100.00
21545;BME280;10933;50.754;11.508;2022-10-13T07:44:59;100043.09;;;8.48;100.00
21545;BME280;10933;50.754;11.508;2022-10-13T07:47:25;100036.03;;;8.54;100.00
21545;BME280;10933;50.754;11.508;2022-10-13T07:49:51;100039.41;;;8.79;100.00
21545;BME280;10933;50.754;11.508;2022-10-13T07:52:19;100034.53;;;8.88;100.00
21545;BME280;10933;50.754;11.508;2022-10-13T07:54:45;100020.13;;;8.82;100.00
21545;BME280;10933;50.754;11.508;2022-10-13T07:57:11;100015.81;;;9.23;100.00
21545;BME280;10933;50.754;11.508;2022-10-13T07:59:38;100013.03;;;9.65;100.00
21545;BME280;10933;50.754;11.508;2022-10-13T08:02:04;100000.28;;;9.60;100.00
21545;BME280;10933;50.754;11.508;2022-10-13T08:04:31;100011.41;;;9.40;100.00
21545;BME280;10933;50.754;11.508;2022-10-13T08:06:58;100005.19;;;9.75;100.00
21545;BME280;10933;50.754;11.508;2022-10-13T08:09:25;100005.53;;;10.02;100.00
21545;BME280;10933;50.754;11.508;2022-10-13T08:11:52;100002.38;;;10.17;100.00
21545;BME280;10933;50.754;11.508;2022-10-13T08:14:19;99994.16;;;10.35;100.00
21545;BME280;10933;50.754;11.508;2022-10-13T08:16:45;100012.03;;;10.53;100.00
21545;BME280;10933;50.754;11.508;2022-10-13T08:19:12;100003.53;;;10.21;100.00
21545;BME280;10933;50.754;11.508;2022-10-13T08:21:39;100001.94;;;9.96;100.00
21545;BME280;10933;50.754;11.508;2022-10-13T08:24:08;100005.66;;;10.07;100.00
21545;BME280;10933;50.754;11.508;2022-10-13T08:26:35;100006.16;;;10.04;100.00
21545;BME280;10933;50.754;11.508;2022-10-13T08:29:01;100006.72;;;9.94;100.00
21545;BME280;10933;50.754;11.508;2022-10-13T08:31:28;100008.38;;;10.07;100.00
21545;BME280;10933;50.754;11.508;2022-10-13T08:33:54;100006.34;;;10.26;100.00
21545;BME280;10933;50.754;11.508;2022-10-13T08:36:20;100003.28;;;10.46;100.00
21545;BME280;10933;50.754;11.508;2022-10-13T08:38:46;100000.03;;;10.32;100.00
21545;BME280;10933;50.754;11.508;2022-10-13T08:41:18;99996.81;;;10.47;100.00
21545;BME280;10933;50.754;11.508;2022-10-13T08:43:53;99988.59;;;10.82;100.00
21545;BME280;10933;50.754;11.508;2022-10-13T08:46:26;99996.91;;;11.26;100.00
21545;BME280;10933;50.754;11.508;2022-10-13T08:48:55;99985.97;;;11.32;100.00
21545;BME280;10933;50.754;11.508;2022-10-13T08:51:22;99979.06;;;11.92;100.00
21545;BME280;10933;50.754;11.508;2022-10-13T08:53:48;99969.28;;;12.78;100.00
21545;BME280;10933;50.754;11.508;2022-10-13T08:56:34;99962.78;;;13.06;100.00
21545;BME280;10933;50.754;11.508;2022-10-13T08:59:03;99961.41;;;13.68;100.00
21545;BME280;10933;50.754;11.508;2022-10-13T09:01:36;99952.88;;;13.96;100.00
21545;BME280;10933;50.754;11.508;2022-10-13T09:04:07;99953.84;;;12.30;100.00
21545;BME280;10933;50.754;11.508;2022-10-13T09:09:23;99940.88;;;11.33;100.00
21545;BME280;10933;50.754;11.508;2022-10-13T09:11:50;99939.19;;;12.04;100.00
21545;BME280;10933;50.754;11.508;2022-10-13T09:14:35;99942.59;;;12.38;100.00
21545;BME280;10933;50.754;11.508;2022-10-13T09:17:28;99947.44;;;12.14;100.00
21545;BME280;10933;50.754;11.508;2022-10-13T09:20:22;99940.06;;;11.88;100.00
21545;BME280;10933;50.754;11.508;2022-10-13T09:23:16;99946.13;;;12.38;100.00
21545;BME280;10933;50.754;11.508;2022-10-13T09:25:45;99948.53;;;12.13;100.00
21545;BME280;10933;50.754;11.508;2022-10-13T09:28:26;99954.56;;;12.20;100.00
21545;BME280;10933;50.754;11.508;2022-10-13T09:31:15;99957.41;;;12.08;100.00
21545;BME280;10933;50.754;11.508;2022-10-13T09:33:42;99957.84;;;12.22;100.00
21545;BME280;10933;50.754;11.508;2022-10-13T09:36:15;99953.59;;;12.31;100.00
21545;BME280;10933;50.754;11.508;2022-10-13T09:39:10;99949.59;;;12.12;100.00
21545;BME280;10933;50.754;11.508;2022-10-13T09:41:39;99944.78;;;12.41;100.00
21545;BME280;10933;50.754;11.508;2022-10-13T09:44:18;99952.84;;;12.14;100.00
21545;BME280;10933;50.754;11.508;2022-10-13T09:46:54;99941.56;;;12.44;100.00
21545;BME280;10933;50.754;11.508;2022-10-13T09:52:03;99947.34;;;12.75;100.00
21545;BME280;10933;50.754;11.508;2022-10-13T09:54:37;99947.34;;;12.75;100.00
21545;BME280;10933;50.754;11.508;2022-10-13T10:05:27;99934.63;;;14.39;100.00
21545;BME280;10933;50.754;11.508;2022-10-13T10:08:01;99930.13;;;15.82;100.00
21545;BME280;10933;50.754;11.508;2022-10-13T10:10:33;99930.19;;;16.36;100.00
21545;BME280;10933;50.754;11.508;2022-10-13T10:13:00;99916.97;;;17.37;100.00
21545;BME280;10933;50.754;11.508;2022-10-13T10:27:28;99922.81;;;15.37;100.00
21545;BME280;10933;50.754;11.508;2022-10-13T10:30:20;99916.84;;;14.79;100.00
21545;BME280;10933;50.754;11.508;2022-10-13T10:33:17;99909.47;;;13.91;100.00
21545;BME280;10933;50.754;11.508;2022-10-13T10:36:09;99920.50;;;14.32;100.00
21545;BME280;10933;50.754;11.508;2022-10-13T10:38:51;99918.41;;;14.59;100.00
21545;BME280;10933;50.754;11.508;2022-10-13T10:41:37;99921.97;;;14.65;100.00
21545;BME280;10933;50.754;11.508;2022-10-13T10:44:14;99914.66;;;14.70;100.00
21545;BME280;10933;50.754;11.508;2022-10-13T10:46:45;99901.44;;;14.11;100.00
21545;BME280;10933;50.754;11.508;2022-10-13T10:49:33;99900.41;;;14.33;100.00
21545;BME280;10933;50.754;11.508;2022-10-13T10:52:05;99892.91;;;15.42;100.00
21545;BME280;10933;50.754;11.508;2022-10-13T10:57:18;99886.81;;;17.52;100.00
21545;BME280;10933;50.754;11.508;2022-10-13T11:00:11;99889.28;;;18.26;100.00
21545;BME280;10933;50.754;11.508;2022-10-13T11:08:29;99873.88;;;16.76;100.00
21545;BME280;10933;50.754;11.508;2022-10-13T11:27:36;99840.78;;;20.08;100.00
21545;BME280;10933;50.754;11.508;2022-10-13T11:30:04;99839.00;;;17.36;100.00
21545;BME280;10933;50.754;11.508;2022-10-13T11:51:48;99815.53;;;21.14;100.00
21545;BME280;10933;50.754;11.508;2022-10-13T11:56:54;99823.13;;;20.14;100.00
21545;BME280;10933;50.754;11.508;2022-10-13T11:59:27;99815.53;;;20.11;100.00
21545;BME280;10933;50.754;11.508;2022-10-13T12:02:05;99805.06;;;19.30;100.00
21545;BME280;10933;50.754;11.508;2022-10-13T12:04:31;99799.84;;;19.75;100.00
21545;BME280;10933;50.754;11.508;2022-10-13T12:07:02;99790.41;;;19.81;100.00
21545;BME280;10933;50.754;11.508;2022-10-13T12:09:30;99777.81;;;20.66;100.00
21545;BME280;10933;50.754;11.508;2022-10-13T12:11:59;99778.31;;;20.10;100.00
21545;BME280;10933;50.754;11.508;2022-10-13T12:14:40;99775.25;;;20.70;100.00
21545;BME280;10933;50.754;11.508;2022-10-13T12:17:29;99775.53;;;20.91;100.00
21545;BME280;10933;50.754;11.508;2022-10-13T12:19:59;99771.56;;;21.28;96.80
21545;BME280;10933;50.754;11.508;2022-10-13T12:22:26;99765.97;;;19.98;100.00
21545;BME280;10933;50.754;11.508;2022-10-13T12:25:00;99762.97;;;19.31;100.00
21545;BME280;10933;50.754;11.508;2022-10-13T12:27:28;99757.88;;;19.38;100.00
21545;BME280;10933;50.754;11.508;2022-10-13T12:30:01;99762.72;;;19.96;100.00
21545;BME280;10933;50.754;11.508;2022-10-13T12:32:31;99751.41;;;21.01;100.00
21545;BME280;10933;50.754;11.508;2022-10-13T12:37:43;99753.13;;;18.19;100.00
21545;BME280;10933;50.754;11.508;2022-10-13T12:40:13;99753.78;;;18.30;100.00
21545;BME280;10933;50.754;11.508;2022-10-13T12:42:41;99751.66;;;18.59;100.00
21545;BME280;10933;50.754;11.508;2022-10-13T12:45:21;99747.75;;;17.95;100.00
21545;BME280;10933;50.754;11.508;2022-10-13T12:47:51;99748.22;;;18.16;100.00
21545;BME280;10933;50.754;11.508;2022-10-13T12:55:59;99750.38;;;18.38;100.00
21545;BME280;10933;50.754;11.508;2022-10-13T12:58:44;99750.97;;;17.97;100.00
21545;BME280;10933;50.754;11.508;2022-10-13T13:03:41;99744.06;;;17.38;100.00
21545;BME280;10933;50.754;11.508;2022-10-13T13:06:09;99744.66;;;17.35;100.00
21545;BME280;10933;50.754;11.508;2022-10-13T13:08:36;99742.47;;;17.37;100.00
21545;BME280;10933;50.754;11.508;2022-10-13T13:11:05;99738.50;;;17.24;100.00
21545;BME280;10933;50.754;11.508;2022-10-13T13:13:32;99743.97;;;18.10;100.00
21545;BME280;10933;50.754;11.508;2022-10-13T13:16:15;99738.78;;;18.92;100.00
21545;BME280;10933;50.754;11.508;2022-10-13T13:18:49;99737.13;;;19.24;100.00
21545;BME280;10933;50.754;11.508;2022-10-13T13:21:17;99735.38;;;19.14;100.00
21545;BME280;10933;50.754;11.508;2022-10-13T13:23:45;99734.59;;;19.55;100.00
21545;BME280;10933;50.754;11.508;2022-10-13T13:26:13;99736.91;;;19.20;100.00
21545;BME280;10933;50.754;11.508;2022-10-13T13:28:50;99728.66;;;18.28;100.00
21545;BME280;10933;50.754;11.508;2022-10-13T13:31:19;99736.69;;;18.05;100.00
21545;BME280;10933;50.754;11.508;2022-10-13T13:33:46;99730.47;;;18.51;100.00
21545;BME280;10933;50.754;11.508;2022-10-13T13:36:23;99733.50;;;18.68;100.00
21545;BME280;10933;50.754;11.508;2022-10-13T13:38:50;99729.44;;;18.14;100.00
21545;BME280;10933;50.754;11.508;2022-10-13T13:41:17;99728.75;;;17.66;100.00
21545;BME280;10933;50.754;11.508;2022-10-13T13:43:43;99723.44;;;17.32;100.00
21545;BME280;10933;50.754;11.508;2022-10-13T13:46:17;99733.94;;;17.62;100.00
21545;BME280;10933;50.754;11.508;2022-10-13T13:48:44;99729.44;;;17.53;100.00
21545;BME280;10933;50.754;11.508;2022-10-13T13:51:10;99720.13;;;17.35;100.00
21545;BME280;10933;50.754;11.508;2022-10-13T13:53:36;99718.00;;;17.32;100.00
21545;BME280;10933;50.754;11.508;2022-10-13T13:56:03;99717.06;;;17.18;100.00
21545;BME280;10933;50.754;11.508;2022-10-13T13:58:29;99706.72;;;17.15;100.00
21545;BME280;10933;50.754;11.508;2022-10-13T14:00:57;99700.81;;;17.08;100.00
21545;BME280;10933;50.754;11.508;2022-10-13T14:03:23;99706.72;;;17.15;100.00
21545;BME280;10933;50.754;11.508;2022-10-13T14:05:49;99709.75;;;17.13;100.00
21545;BME280;10933;50.754;11.508;2022-10-13T14:08:15;99708.59;;;17.19;100.00
21545;BME280;10933;50.754;11.508;2022-10-13T14:10:42;99710.09;;;17.06;100.00
21545;BME280;10933;50.754;11.508;2022-10-13T14:13:08;99709.41;;;16.96;100.00
21545;BME280;10933;50.754;11.508;2022-10-13T14:15:34;99704.16;;;16.75;100.00
21545;BME280;10933;50.754;11.508;2022-10-13T14:18:00;99700.16;;;16.68;100.00
21545;BME280;10933;50.754;11.508;2022-10-13T14:20:26;99698.53;;;16.62;100.00
21545;BME280;10933;50.754;11.508;2022-10-13T14:22:52;99702.63;;;16.64;100.00
21545;BME280;10933;50.754;11.508;2022-10-13T14:25:19;99702.88;;;16.63;100.00
21545;BME280;10933;50.754;11.508;2022-10-13T14:27:45;99699.50;;;16.76;100.00
21545;BME280;10933;50.754;11.508;2022-10-13T14:30:12;99705.78;;;16.76;100.00
21545;BME280;10933;50.754;11.508;2022-10-13T14:32:39;99700.00;;;16.83;100.00
21545;BME280;10933;50.754;11.508;2022-10-13T14:35:05;99709.00;;;16.49;100.00
21545;BME280;10933;50.754;11.508;2022-10-13T14:37:32;99710.38;;;16.47;100.00
21545;BME280;10933;50.754;11.508;2022-10-13T14:39:58;99720.75;;;16.45;100.00
21545;BME280;10933;50.754;11.508;2022-10-13T14:42:24;99721.56;;;16.45;100.00
21545;BME280;10933;50.754;11.508;2022-10-13T14:44:50;99711.84;;;16.39;100.00
21545;BME280;10933;50.754;11.508;2022-10-13T14:47:16;99718.47;;;16.23;100.00